Juan Ramon Egana — EAUT — position and weather

sailwx.info

Track history (hours):
 
Tides and Currents Weather Stations Pressure Air Temp Water Temp Dewpoint Dewpoint Depression Visibility Wind Speed Wind Dir Waves Ship Positions

Juan Ramon Egana

Last reported at 2018-Feb-18 21:38 UTC. Time now 2018-Feb-19 18:10 UTC.
Position N 37°36' W 000°28'.

Length 77 m.

Type: Fishing. MMSI: 224501000.

Date/timePositionNaut miles runAvg speedWind from/ knotsBaromVisibWave heightAir tempDewpointWater temp
2018-Feb-18 21:38N 37°36' W 000°28'213.3
2018-Feb-18 21:30N 37°35' W 000°29'712.9
2018-Feb-18 20:57N 37°30' W 000°36'812.4
2018-Feb-18 20:20N 37°25' W 000°43'412.3
2018-Feb-18 20:00N 37°22' W 000°47'812.3
2018-Feb-18 19:21N 37°17' W 000°54'400 9.8
2018-Feb-17 02:34N 37°45' W 009°17'112.2
2018-Feb-17 02:30N 37°46' W 009°17'612.2
2018-Feb-17 02:00N 37°52' W 009°14'612.0
2018-Feb-17 01:31N 37°58' W 009°12'611.9
2018-Feb-17 01:01N 38°03' W 009°09'611.8
2018-Feb-17 00:31N 38°09' W 009°07'612.1
2018-Feb-17 00:01N 38°15' W 009°05'612.2
2018-Feb-16 23:31N 38°20' W 009°02'612.4
2018-Feb-16 23:01N 38°26' W 008°59'4 8.7
2018-Feb-16 22:30N 38°30' W 008°56'3 2.9
2018-Feb-16 21:32N 38°31' W 008°53'0 0.0
2018-Feb-16 20:44N 38°31' W 008°53'0 0.0
2018-Feb-16 20:17N 38°31' W 008°53'0 0.0
2018-Feb-16 19:14N 38°31' W 008°53'0 0.0
2018-Feb-16 18:53N 38°31' W 008°53'0 0.0
2018-Feb-16 18:26N 38°31' W 008°53'0 0.0
2018-Feb-16 17:26N 38°31' W 008°53'0 0.0
2018-Feb-16 15:26N 38°31' W 008°53'0 0.0
2018-Feb-16 14:50N 38°31' W 008°53'0 0.0
2018-Feb-16 14:14N 38°31' W 008°53'0 0.0
2018-Feb-16 13:56N 38°31' W 008°53'0 0.0
2018-Feb-16 13:26N 38°31' W 008°53'0 0.0
2018-Feb-16 12:56N 38°31' W 008°53'0 0.0
2018-Feb-16 12:17N 38°31' W 008°53'0 0.0
2018-Feb-16 11:17N 38°31' W 008°53'0 0.0
2018-Feb-16 10:53N 38°31' W 008°53'0 0.0
2018-Feb-16 09:26N 38°31' W 008°53'0 0.0
2018-Feb-16 08:50N 38°31' W 008°53'0 0.0
2018-Feb-16 08:20N 38°31' W 008°53'0 0.0
2018-Feb-16 07:44N 38°31' W 008°53'0 0.0
2018-Feb-16 07:14N 38°31' W 008°53'0 0.0
2018-Feb-16 06:56N 38°31' W 008°53'0 0.0
2018-Feb-16 06:26N 38°31' W 008°53'0 0.0
2018-Feb-16 05:50N 38°31' W 008°53'0 0.0
2018-Feb-16 05:26N 38°31' W 008°53'0 0.0
2018-Feb-16 04:26N 38°31' W 008°53'0 0.0
2018-Feb-16 03:53N 38°31' W 008°53'0 0.0
2018-Feb-16 03:26N 38°31' W 008°53'0 0.0
2018-Feb-16 02:44N 38°31' W 008°53'0 0.0
2018-Feb-16 02:29N 38°31' W 008°53'0 0.0
2018-Feb-16 01:59N 38°31' W 008°53'0 0.0
2018-Feb-16 01:20N 38°31' W 008°53'0 0.0
2018-Feb-16 00:59N 38°31' W 008°53'0 0.0
2018-Feb-16 00:20N 38°31' W 008°53'0 0.0
2018-Feb-15 22:56N 38°31' W 008°53'0 0.0
2018-Feb-15 22:26N 38°31' W 008°53'0 0.0
2018-Feb-15 21:56N 38°31' W 008°53'0 0.0
2018-Feb-15 21:26N 38°31' W 008°53'0 0.0
2018-Feb-15 20:59N 38°31' W 008°53'0 0.0
2018-Feb-15 20:29N 38°31' W 008°53'0 0.0
2018-Feb-15 19:53N 38°31' W 008°53'0 0.0
2018-Feb-15 19:23N 38°31' W 008°53'0 0.0
2018-Feb-15 18:44N 38°31' W 008°53'0 0.0
2018-Feb-15 18:26N 38°31' W 008°53'0 0.0
2018-Feb-15 17:59N 38°31' W 008°53'0 0.0
2018-Feb-15 17:26N 38°31' W 008°53'0 0.0
2018-Feb-15 16:56N 38°31' W 008°53'0 0.0
2018-Feb-15 16:20N 38°31' W 008°53'0 0.0
2018-Feb-15 15:59N 38°31' W 008°53'0 0.0
2018-Feb-15 14:38N 38°31' W 008°53'0 0.0
2018-Feb-15 14:26N 38°31' W 008°53'0 0.0
2018-Feb-15 13:56N 38°31' W 008°53'0 0.0
2018-Feb-15 12:44N 38°31' W 008°53'0 0.0
2018-Feb-15 12:29N 38°31' W 008°53'0 0.0
2018-Feb-15 11:59N 38°31' W 008°53'0 0.7
2018-Feb-15 11:30N 38°31' W 008°53'2 4.1
2018-Feb-15 11:00N 38°30' W 008°55'3 6.3
2018-Feb-15 10:30N 38°27' W 008°58'2 4.6
2018-Feb-15 10:01N 38°26' W 008°60'0 0.5
2018-Feb-15 09:30N 38°25' W 008°60'0 0.8
2018-Feb-15 09:00N 38°25' W 009°00'0 0.6
2018-Feb-15 08:30N 38°25' W 009°00'0 1.0
2018-Feb-15 08:00N 38°24' W 009°01'1 1.1
2018-Feb-15 07:30N 38°24' W 009°01'1 1.0
2018-Feb-15 07:00N 38°24' W 009°01'1 1.2
2018-Feb-15 06:28N 38°23' W 009°02'0 0.7
2018-Feb-15 06:00N 38°23' W 009°01'0 0.6
2018-Feb-15 05:30N 38°22' W 009°01'1 3.0
2018-Feb-15 05:00N 38°21' W 009°02'1 2.6
2018-Feb-15 04:30N 38°20' W 009°03'1 2.7
2018-Feb-15 04:00N 38°19' W 009°04'1 2.9
2018-Feb-15 03:30N 38°17' W 009°04'1 2.6
2018-Feb-15 03:00N 38°16' W 009°04'1 2.7
2018-Feb-15 02:30N 38°16' W 009°02'1 2.7
2018-Feb-15 02:00N 38°16' W 009°00'1 2.7
2018-Feb-15 01:30N 38°15' W 008°59'1 2.3
2018-Feb-15 01:00N 38°14' W 008°58'1 2.9
2018-Feb-15 00:30N 38°12' W 008°58'1 2.8
2018-Feb-15 00:00N 38°11' W 008°58'1 2.6
2018-Feb-14 23:30N 38°10' W 008°59'1 2.8
2018-Feb-14 23:00N 38°08' W 008°59'1 2.8
2018-Feb-14 22:30N 38°07' W 008°59'1 2.9
2018-Feb-14 22:00N 38°05' W 008°59'1 2.9
2018-Feb-14 21:30N 38°04' W 008°60'2 3.6
2018-Feb-14 21:00N 38°02' W 008°60'2 3.7
2018-Feb-14 20:30N 38°00' W 009°00'2 3.7
2018-Feb-14 20:00N 37°59' W 009°01'2 3.8
2018-Feb-14 19:30N 37°57' W 009°01'2 3.7
2018-Feb-14 19:00N 37°55' W 009°01'2 3.5
2018-Feb-14 18:30N 37°53' W 009°01'2 3.3
2018-Feb-14 18:00N 37°51' W 009°01'2 3.3
2018-Feb-14 17:30N 37°50' W 009°01'2 3.4
2018-Feb-14 17:00N 37°48' W 009°01'2 3.5
2018-Feb-14 16:30N 37°46' W 009°02'2 3.4
2018-Feb-14 16:00N 37°45' W 009°02'1 2.3
2018-Feb-14 15:30N 37°44' W 009°02'2 3.2
2018-Feb-14 15:00N 37°42' W 009°04'2 4.1
2018-Feb-14 14:30N 37°41' W 009°05'2 4.1
2018-Feb-14 14:00N 37°39' W 009°07'2 4.1
2018-Feb-14 13:30N 37°38' W 009°09'2 4.4
2018-Feb-14 13:00N 37°36' W 009°11'2 4.4
2018-Feb-14 12:28N 37°35' W 009°13'76 1.6
2018-Feb-12 12:12N 38°38' W 010°05'413.1
2018-Feb-12 11:54N 38°42' W 010°06'813.1
2018-Feb-12 11:17N 38°50' W 010°07'312.3
2018-Feb-12 11:00N 38°53' W 010°07'612.2
2018-Feb-12 10:30N 38°60' W 010°07'612.1
2018-Feb-12 10:00N 39°06' W 010°07'  
Track history (hours):
 
Tides and Currents Weather Stations Pressure Air Temp Water Temp Dewpoint Dewpoint Depression Visibility Wind Speed Wind Dir Waves Ship Positions

Juan Ramon Egana

Last reported at 2018-Feb-18 21:38 UTC. Time now 2018-Feb-19 18:10 UTC.
Position N 37°36' W 000°28'.

Length 77 m.

Type: Fishing. MMSI: 224501000.

Date/timePositionNaut miles runAvg speedWind from/ knotsBaromVisibWave heightAir tempDewpointWater temp
2018-Feb-18 21:38N 37°36' W 000°28'213.3
2018-Feb-18 21:30N 37°35' W 000°29'712.9
2018-Feb-18 20:57N 37°30' W 000°36'812.4
2018-Feb-18 20:20N 37°25' W 000°43'412.3
2018-Feb-18 20:00N 37°22' W 000°47'812.3
2018-Feb-18 19:21N 37°17' W 000°54'400 9.8
2018-Feb-17 02:34N 37°45' W 009°17'112.2
2018-Feb-17 02:30N 37°46' W 009°17'612.2
2018-Feb-17 02:00N 37°52' W 009°14'612.0
2018-Feb-17 01:31N 37°58' W 009°12'611.9
2018-Feb-17 01:01N 38°03' W 009°09'611.8
2018-Feb-17 00:31N 38°09' W 009°07'612.1
2018-Feb-17 00:01N 38°15' W 009°05'612.2
2018-Feb-16 23:31N 38°20' W 009°02'612.4
2018-Feb-16 23:01N 38°26' W 008°59'4 8.7
2018-Feb-16 22:30N 38°30' W 008°56'3 2.9
2018-Feb-16 21:32N 38°31' W 008°53'0 0.0
2018-Feb-16 20:44N 38°31' W 008°53'0 0.0
2018-Feb-16 20:17N 38°31' W 008°53'0 0.0
2018-Feb-16 19:14N 38°31' W 008°53'0 0.0
2018-Feb-16 18:53N 38°31' W 008°53'0 0.0
2018-Feb-16 18:26N 38°31' W 008°53'0 0.0
2018-Feb-16 17:26N 38°31' W 008°53'0 0.0
2018-Feb-16 15:26N 38°31' W 008°53'0 0.0
2018-Feb-16 14:50N 38°31' W 008°53'0 0.0
2018-Feb-16 14:14N 38°31' W 008°53'0 0.0
2018-Feb-16 13:56N 38°31' W 008°53'0 0.0
2018-Feb-16 13:26N 38°31' W 008°53'0 0.0
2018-Feb-16 12:56N 38°31' W 008°53'0 0.0
2018-Feb-16 12:17N 38°31' W 008°53'0 0.0
2018-Feb-16 11:17N 38°31' W 008°53'0 0.0
2018-Feb-16 10:53N 38°31' W 008°53'0 0.0
2018-Feb-16 09:26N 38°31' W 008°53'0 0.0
2018-Feb-16 08:50N 38°31' W 008°53'0 0.0
2018-Feb-16 08:20N 38°31' W 008°53'0 0.0
2018-Feb-16 07:44N 38°31' W 008°53'0 0.0
2018-Feb-16 07:14N 38°31' W 008°53'0 0.0
2018-Feb-16 06:56N 38°31' W 008°53'0 0.0
2018-Feb-16 06:26N 38°31' W 008°53'0 0.0
2018-Feb-16 05:50N 38°31' W 008°53'0 0.0
2018-Feb-16 05:26N 38°31' W 008°53'0 0.0
2018-Feb-16 04:26N 38°31' W 008°53'0 0.0
2018-Feb-16 03:53N 38°31' W 008°53'0 0.0
2018-Feb-16 03:26N 38°31' W 008°53'0 0.0
2018-Feb-16 02:44N 38°31' W 008°53'0 0.0
2018-Feb-16 02:29N 38°31' W 008°53'0 0.0
2018-Feb-16 01:59N 38°31' W 008°53'0 0.0
2018-Feb-16 01:20N 38°31' W 008°53'0 0.0
2018-Feb-16 00:59N 38°31' W 008°53'0 0.0
2018-Feb-16 00:20N 38°31' W 008°53'0 0.0
2018-Feb-15 22:56N 38°31' W 008°53'0 0.0
2018-Feb-15 22:26N 38°31' W 008°53'0 0.0
2018-Feb-15 21:56N 38°31' W 008°53'0 0.0
2018-Feb-15 21:26N 38°31' W 008°53'0 0.0
2018-Feb-15 20:59N 38°31' W 008°53'0 0.0
2018-Feb-15 20:29N 38°31' W 008°53'0 0.0
2018-Feb-15 19:53N 38°31' W 008°53'0 0.0
2018-Feb-15 19:23N 38°31' W 008°53'0 0.0
2018-Feb-15 18:44N 38°31' W 008°53'0 0.0
2018-Feb-15 18:26N 38°31' W 008°53'0 0.0
2018-Feb-15 17:59N 38°31' W 008°53'0 0.0
2018-Feb-15 17:26N 38°31' W 008°53'0 0.0
2018-Feb-15 16:56N 38°31' W 008°53'0 0.0
2018-Feb-15 16:20N 38°31' W 008°53'0 0.0
2018-Feb-15 15:59N 38°31' W 008°53'0 0.0
2018-Feb-15 14:38N 38°31' W 008°53'0 0.0
2018-Feb-15 14:26N 38°31' W 008°53'0 0.0
2018-Feb-15 13:56N 38°31' W 008°53'0 0.0
2018-Feb-15 12:44N 38°31' W 008°53'0 0.0
2018-Feb-15 12:29N 38°31' W 008°53'0 0.0
2018-Feb-15 11:59N 38°31' W 008°53'0 0.7
2018-Feb-15 11:30N 38°31' W 008°53'2 4.1
2018-Feb-15 11:00N 38°30' W 008°55'3 6.3
2018-Feb-15 10:30N 38°27' W 008°58'2 4.6
2018-Feb-15 10:01N 38°26' W 008°60'0 0.5
2018-Feb-15 09:30N 38°25' W 008°60'0 0.8
2018-Feb-15 09:00N 38°25' W 009°00'0 0.6
2018-Feb-15 08:30N 38°25' W 009°00'0 1.0
2018-Feb-15 08:00N 38°24' W 009°01'1 1.1
2018-Feb-15 07:30N 38°24' W 009°01'1 1.0
2018-Feb-15 07:00N 38°24' W 009°01'1 1.2
2018-Feb-15 06:28N 38°23' W 009°02'0 0.7
2018-Feb-15 06:00N 38°23' W 009°01'0 0.6
2018-Feb-15 05:30N 38°22' W 009°01'1 3.0
2018-Feb-15 05:00N 38°21' W 009°02'1 2.6
2018-Feb-15 04:30N 38°20' W 009°03'1 2.7
2018-Feb-15 04:00N 38°19' W 009°04'1 2.9
2018-Feb-15 03:30N 38°17' W 009°04'1 2.6
2018-Feb-15 03:00N 38°16' W 009°04'1 2.7
2018-Feb-15 02:30N 38°16' W 009°02'1 2.7
2018-Feb-15 02:00N 38°16' W 009°00'1 2.7
2018-Feb-15 01:30N 38°15' W 008°59'1 2.3
2018-Feb-15 01:00N 38°14' W 008°58'1 2.9
2018-Feb-15 00:30N 38°12' W 008°58'1 2.8
2018-Feb-15 00:00N 38°11' W 008°58'1 2.6
2018-Feb-14 23:30N 38°10' W 008°59'1 2.8
2018-Feb-14 23:00N 38°08' W 008°59'1 2.8
2018-Feb-14 22:30N 38°07' W 008°59'1 2.9
2018-Feb-14 22:00N 38°05' W 008°59'1 2.9
2018-Feb-14 21:30N 38°04' W 008°60'2 3.6
2018-Feb-14 21:00N 38°02' W 008°60'2 3.7
2018-Feb-14 20:30N 38°00' W 009°00'2 3.7
2018-Feb-14 20:00N 37°59' W 009°01'2 3.8
2018-Feb-14 19:30N 37°57' W 009°01'2 3.7
2018-Feb-14 19:00N 37°55' W 009°01'2 3.5
2018-Feb-14 18:30N 37°53' W 009°01'2 3.3
2018-Feb-14 18:00N 37°51' W 009°01'2 3.3
2018-Feb-14 17:30N 37°50' W 009°01'2 3.4
2018-Feb-14 17:00N 37°48' W 009°01'2 3.5
2018-Feb-14 16:30N 37°46' W 009°02'2 3.4
2018-Feb-14 16:00N 37°45' W 009°02'1 2.3
2018-Feb-14 15:30N 37°44' W 009°02'2 3.2
2018-Feb-14 15:00N 37°42' W 009°04'2 4.1
2018-Feb-14 14:30N 37°41' W 009°05'2 4.1
2018-Feb-14 14:00N 37°39' W 009°07'2 4.1
2018-Feb-14 13:30N 37°38' W 009°09'2 4.4
2018-Feb-14 13:00N 37°36' W 009°11'2 4.4
2018-Feb-14 12:28N 37°35' W 009°13'76 1.6
2018-Feb-12 12:12N 38°38' W 010°05'413.1
2018-Feb-12 11:54N 38°42' W 010°06'813.1
2018-Feb-12 11:17N 38°50' W 010°07'312.3
2018-Feb-12 11:00N 38°53' W 010°07'612.2
2018-Feb-12 10:30N 38°60' W 010°07'612.1
2018-Feb-12 10:00N 39°06' W 010°07'  

Dump ship's entire track history